Time;durP1;ratioP1;P1;durP2;ratioP2;P2;SDS_P1;SDS_P2;PMS_P1;PMS_P2;Temp;Humidity;BMP_temperature;BMP_pressure;BME280_temperature;BME280_humidity;BME280_pressure;Samples;Min_cycle;Max_cycle;Signal;HPM_P1;HPM_P2
2023/10/17 00:00:26;;;;;;;9.23;6.60;;;;;;;;;;682428;28;69782;-65
2023/10/17 00:00:46;;;;;;;8.95;6.22;;;;;;;;;;680582;28;69832;-64
2023/10/17 00:01:10;;;;;;;8.90;5.90;;;;;;;;;;682144;29;1212;-65
2023/10/17 00:01:34;;;;;;;9.15;5.72;;;;;;;;;;681258;29;23260;-64
2023/10/17 00:01:54;;;;;;;8.18;5.78;;;;;;;;;;679151;28;23511;-65
2023/10/17 00:02:27;;;;;;;7.93;5.77;;;;;;;;;;684939;28;1200;-64
2023/10/17 00:02:48;;;;;;;8.13;5.75;;;;;;;;;;681000;28;69527;-64
2023/10/17 00:03:11;;;;;;;9.35;6.65;;;;;;;;;;686875;28;1283;-64
2023/10/17 00:03:31;;;;;;;7.85;6.13;;;;;;;;;;688053;28;958;-64
2023/10/17 00:03:54;;;;;;;8.07;6.23;;;;;;;;;;685476;28;5393;-65
2023/10/17 00:04:41;;;;;;;9.63;6.55;;;;;;;;;;687448;28;1338;-65
2023/10/17 00:05:03;;;;;;;9.68;7.32;;;;;;;;;;684721;28;23276;-65
2023/10/17 00:05:25;;;;;;;11.63;7.85;;;;;;;;;;688082;28;968;-64
2023/10/17 00:05:45;;;;;;;11.80;8.43;;;;;;;;;;687484;28;1420;-64
2023/10/17 00:06:06;;;;;;;11.73;8.45;;;;;;;;;;681823;29;1047;-64
2023/10/17 00:06:27;;;;;;;12.02;8.77;;;;;;;;;;681671;29;1494;-64
2023/10/17 00:06:50;;;;;;;11.13;8.70;;;;;;;;;;680210;29;4529;-64
2023/10/17 00:07:10;;;;;;;12.23;8.95;;;;;;;;;;680434;29;861;-64
2023/10/17 00:07:30;;;;;;;11.80;8.97;;;;;;;;;;682268;29;1052;-65
2023/10/17 00:07:51;;;;;;;12.73;9.23;;;;;;;;;;681850;28;1098;-64
2023/10/17 00:08:13;;;;;;;12.77;8.95;;;;;;;;;;687693;28;920;-63
2023/10/17 00:08:33;;;;;;;10.05;8.38;;;;;;;;;;687030;28;952;-65
2023/10/17 00:08:54;;;;;;;10.97;8.33;;;;;;;;;;686287;28;2323;-64
2023/10/17 00:09:24;;;;;;;10.00;7.80;;;;;;;;;;687601;28;1458;-64
2023/10/17 00:09:45;;;;;;;9.85;6.85;;;;;;;;;;684523;28;69783;-64
2023/10/17 00:10:08;;;;;;;9.37;7.00;;;;;;;;;;685886;28;1198;-64
2023/10/17 00:10:32;;;;;;;9.88;6.57;;;;;;;;;;686669;28;23248;-65
2023/10/17 00:10:52;;;;;;;10.07;6.57;;;;;;;;;;686201;28;1781;-64
2023/10/17 00:11:21;;;;;;;9.75;6.40;;;;;;;;;;687922;28;1437;-65
2023/10/17 00:12:40;;;;;;;9.77;6.63;;;;;;;;;;686319;28;1323;-64
2023/10/17 00:13:20;;;;;;;10.40;7.85;;;;;;;;;;683258;28;70636;-64
2023/10/17 00:13:45;;;;;;;10.15;6.72;;;;;;;;;;685305;28;68942;-64
2023/10/17 00:14:11;;;;;;;9.50;6.60;;;;;;;;;;685266;28;23137;-65
2023/10/17 00:14:35;;;;;;;8.50;5.90;;;;;;;;;;685359;28;70318;-65
2023/10/17 00:15:27;;;;;;;8.07;5.70;;;;;;;;;;688127;28;908;-65
2023/10/17 00:15:48;;;;;;;8.48;5.82;;;;;;;;;;682224;28;92269;-65
2023/10/17 00:16:09;;;;;;;7.87;5.70;;;;;;;;;;687303;28;920;-64
2023/10/17 00:16:32;;;;;;;8.25;5.63;;;;;;;;;;687546;28;4183;-65
2023/10/17 00:16:55;;;;;;;8.13;5.68;;;;;;;;;;684602;28;23004;-65
2023/10/17 00:17:16;;;;;;;8.10;5.72;;;;;;;;;;687621;28;913;-65
2023/10/17 00:17:36;;;;;;;7.40;5.97;;;;;;;;;;687191;28;1204;-64
2023/10/17 00:18:03;;;;;;;7.30;5.72;;;;;;;;;;686037;28;1234;-65
2023/10/17 00:18:25;;;;;;;7.55;5.43;;;;;;;;;;684434;28;69356;-64
2023/10/17 00:18:45;;;;;;;8.75;6.10;;;;;;;;;;687309;28;5109;-65
2023/10/17 00:19:09;;;;;;;9.37;7.10;;;;;;;;;;682354;28;1858;-65
2023/10/17 00:19:32;;;;;;;8.77;7.00;;;;;;;;;;684139;28;24096;-64
2023/10/17 00:19:52;;;;;;;8.90;6.90;;;;;;;;;;682957;28;1886;-64
2023/10/17 00:20:16;;;;;;;9.13;7.00;;;;;;;;;;685127;28;1325;-65
2023/10/17 00:20:40;;;;;;;9.10;7.13;;;;;;;;;;681535;29;22845;-64
2023/10/17 00:21:22;;;;;;;8.85;6.70;;;;;;;;;;677816;29;23515;-65
2023/10/17 00:21:42;;;;;;;9.57;6.43;;;;;;;;;;676666;29;69494;-64
2023/10/17 00:22:03;;;;;;;7.93;6.27;;;;;;;;;;678121;29;1769;-64
2023/10/17 00:22:26;;;;;;;8.07;6.40;;;;;;;;;;680062;29;1229;-65
2023/10/17 00:22:46;;;;;;;8.98;6.63;;;;;;;;;;681889;29;1318;-64
2023/10/17 00:23:07;;;;;;;8.38;6.32;;;;;;;;;;680368;28;1762;-65
2023/10/17 00:23:31;;;;;;;8.40;5.80;;;;;;;;;;683233;28;952;-65
2023/10/17 00:23:52;;;;;;;9.68;5.80;;;;;;;;;;684420;28;47894;-65
2023/10/17 00:24:12;;;;;;;8.20;5.93;;;;;;;;;;687441;28;1328;-64
2023/10/17 00:24:36;;;;;;;8.57;5.93;;;;;;;;;;687812;28;1051;-64
2023/10/17 00:25:09;;;;;;;7.70;5.93;;;;;;;;;;685325;28;4458;-66
2023/10/17 00:25:29;;;;;;;8.50;5.75;;;;;;;;;;683846;28;92857;-65
2023/10/17 00:25:49;;;;;;;7.97;5.40;;;;;;;;;;683507;28;2836;-65
2023/10/17 00:26:11;;;;;;;8.37;5.50;;;;;;;;;;683982;28;888;-64
2023/10/17 00:26:32;;;;;;;7.50;5.38;;;;;;;;;;684344;28;1230;-64
2023/10/17 00:26:53;;;;;;;7.65;5.65;;;;;;;;;;682642;28;2280;-64
2023/10/17 00:27:13;;;;;;;7.63;5.63;;;;;;;;;;684508;28;1188;-64
2023/10/17 00:27:34;;;;;;;8.27;5.60;;;;;;;;;;684444;28;971;-64
2023/10/17 00:27:54;;;;;;;7.20;5.20;;;;;;;;;;685710;28;4429;-64
2023/10/17 00:28:18;;;;;;;7.13;5.60;;;;;;;;;;686801;28;1219;-64
2023/10/17 00:28:40;;;;;;;8.32;6.07;;;;;;;;;;684690;28;69913;-64
2023/10/17 00:29:04;;;;;;;8.15;6.03;;;;;;;;;;686212;28;1492;-64
2023/10/17 00:29:26;;;;;;;9.00;6.53;;;;;;;;;;683111;28;29247;-65
2023/10/17 00:29:46;;;;;;;8.38;6.30;;;;;;;;;;685060;28;1304;-64
2023/10/17 00:30:16;;;;;;;8.98;6.30;;;;;;;;;;681250;28;1610;-65
2023/10/17 00:30:38;;;;;;;8.43;6.20;;;;;;;;;;679348;29;92426;-65
2023/10/17 00:31:00;;;;;;;8.10;5.70;;;;;;;;;;677250;29;4657;-64
2023/10/17 00:31:21;;;;;;;8.33;6.10;;;;;;;;;;677772;29;1265;-65
2023/10/17 00:31:44;;;;;;;7.78;5.78;;;;;;;;;;677429;29;969;-65
2023/10/17 00:32:08;;;;;;;7.20;5.50;;;;;;;;;;677158;29;1634;-64
2023/10/17 00:32:31;;;;;;;8.02;5.63;;;;;;;;;;674381;29;23720;-64
2023/10/17 00:32:53;;;;;;;9.43;5.53;;;;;;;;;;675553;29;23536;-64
2023/10/17 00:33:15;;;;;;;8.23;5.50;;;;;;;;;;681273;29;960;-64
2023/10/17 00:33:37;;;;;;;7.70;5.55;;;;;;;;;;681113;29;2260;-65
2023/10/17 00:33:58;;;;;;;7.07;5.25;;;;;;;;;;676643;29;4473;-64
2023/10/17 00:34:23;;;;;;;7.27;5.40;;;;;;;;;;680225;29;869;-65
2023/10/17 00:34:46;;;;;;;8.27;6.20;;;;;;;;;;677736;29;68952;-64
2023/10/17 00:35:13;;;;;;;10.18;6.00;;;;;;;;;;680264;28;1750;-64
2023/10/17 00:35:38;;;;;;;8.40;5.60;;;;;;;;;;680693;28;70391;-65
2023/10/17 00:36:04;;;;;;;9.25;5.90;;;;;;;;;;684228;28;46660;-64
2023/10/17 00:36:26;;;;;;;9.52;6.13;;;;;;;;;;685932;28;46943;-64
2023/10/17 00:37:30;;;;;;;8.90;6.75;;;;;;;;;;684283;28;92839;-64
2023/10/17 00:37:53;;;;;;;9.68;7.25;;;;;;;;;;684166;28;26281;-64
2023/10/17 00:38:15;;;;;;;9.88;7.03;;;;;;;;;;684250;28;22591;-64
2023/10/17 00:38:37;;;;;;;7.78;6.10;;;;;;;;;;683826;28;1389;-65
2023/10/17 00:39:08;;;;;;;8.48;6.47;;;;;;;;;;682494;28;5920;-65
2023/10/17 00:39:36;;;;;;;9.55;6.50;;;;;;;;;;682278;28;70159;-64
2023/10/17 00:39:59;;;;;;;8.93;6.60;;;;;;;;;;679957;28;70189;-64
2023/10/17 00:40:34;;;;;;;9.05;6.13;;;;;;;;;;687056;28;1160;-64
2023/10/17 00:40:56;;;;;;;8.60;5.65;;;;;;;;;;680808;28;71461;-64
2023/10/17 00:41:24;;;;;;;9.20;5.95;;;;;;;;;;685175;28;1055;-64
2023/10/17 00:42:29;;;;;;;8.48;6.28;;;;;;;;;;682839;28;71106;-65
2023/10/17 00:42:49;;;;;;;10.20;6.40;;;;;;;;;;680691;28;46471;-65
2023/10/17 00:43:11;;;;;;;8.40;6.00;;;;;;;;;;682211;29;1477;-65
2023/10/17 00:43:35;;;;;;;8.52;5.45;;;;;;;;;;678515;29;1319;-64
2023/10/17 00:43:55;;;;;;;9.75;6.10;;;;;;;;;;677082;29;24173;-64
2023/10/17 00:44:24;;;;;;;7.67;5.93;;;;;;;;;;679922;29;1260;-65
2023/10/17 00:44:44;;;;;;;8.77;5.70;;;;;;;;;;678604;29;69565;-65
2023/10/17 00:45:04;;;;;;;8.20;5.77;;;;;;;;;;679815;29;1063;-64
2023/10/17 00:45:25;;;;;;;7.60;5.53;;;;;;;;;;683510;28;981;-64
2023/10/17 00:45:48;;;;;;;7.63;5.00;;;;;;;;;;681715;28;5007;-65
2023/10/17 00:46:08;;;;;;;8.00;5.18;;;;;;;;;;679521;29;1963;-65
2023/10/17 00:46:29;;;;;;;8.57;5.33;;;;;;;;;;682342;29;987;-63
2023/10/17 00:46:49;;;;;;;7.63;5.10;;;;;;;;;;681914;28;1890;-66
2023/10/17 00:47:18;;;;;;;7.33;5.10;;;;;;;;;;682688;28;1221;-65
2023/10/17 00:47:41;;;;;;;9.13;5.57;;;;;;;;;;680262;28;92775;-64
2023/10/17 00:48:07;;;;;;;9.00;5.85;;;;;;;;;;679824;28;22671;-65
2023/10/17 00:48:27;;;;;;;9.07;5.93;;;;;;;;;;677022;29;71197;-64
2023/10/17 00:48:48;;;;;;;7.87;5.40;;;;;;;;;;678968;29;4695;-65
2023/10/17 00:49:10;;;;;;;7.78;5.25;;;;;;;;;;677542;29;1811;-65
2023/10/17 00:49:37;;;;;;;8.65;5.35;;;;;;;;;;679328;29;1338;-65
2023/10/17 00:50:04;;;;;;;8.93;5.43;;;;;;;;;;675270;29;68720;-66
2023/10/17 00:50:26;;;;;;;8.88;5.50;;;;;;;;;;676464;29;70000;-64
2023/10/17 00:50:47;;;;;;;8.32;5.32;;;;;;;;;;676248;29;1456;-65
2023/10/17 00:51:08;;;;;;;7.55;5.40;;;;;;;;;;675366;29;2362;-64
2023/10/17 00:51:29;;;;;;;8.55;6.05;;;;;;;;;;676288;29;1165;-64
2023/10/17 00:51:52;;;;;;;8.57;6.40;;;;;;;;;;676364;29;4780;-64
2023/10/17 00:52:23;;;;;;;9.13;6.35;;;;;;;;;;678856;29;2290;-65
2023/10/17 00:52:44;;;;;;;7.45;5.80;;;;;;;;;;679487;29;70641;-65
2023/10/17 00:53:06;;;;;;;9.13;5.70;;;;;;;;;;679773;28;1034;-64
2023/10/17 00:53:27;;;;;;;8.88;5.70;;;;;;;;;;684159;28;944;-64
2023/10/17 00:53:47;;;;;;;8.10;5.63;;;;;;;;;;684742;28;1329;-64
2023/10/17 00:54:10;;;;;;;7.43;5.30;;;;;;;;;;680585;28;1818;-64
2023/10/17 00:54:32;;;;;;;6.80;5.10;;;;;;;;;;683461;28;23951;-64
2023/10/17 00:54:56;;;;;;;7.32;5.38;;;;;;;;;;683141;28;4478;-64
2023/10/17 00:55:18;;;;;;;8.55;5.63;;;;;;;;;;680695;29;47057;-64
2023/10/17 00:55:46;;;;;;;7.35;5.65;;;;;;;;;;681658;28;1442;-65
2023/10/17 00:56:07;;;;;;;7.97;5.80;;;;;;;;;;677210;29;69953;-65
2023/10/17 00:56:30;;;;;;;8.82;5.88;;;;;;;;;;678955;29;22961;-65
2023/10/17 00:56:56;;;;;;;7.87;5.30;;;;;;;;;;680946;28;2101;-65
2023/10/17 00:57:17;;;;;;;7.70;5.50;;;;;;;;;;681280;28;69897;-64
2023/10/17 00:57:38;;;;;;;7.88;5.75;;;;;;;;;;684175;28;1337;-64
2023/10/17 00:57:58;;;;;;;7.70;5.32;;;;;;;;;;680390;28;4591;-64
2023/10/17 00:58:19;;;;;;;8.38;5.35;;;;;;;;;;679761;29;991;-64
2023/10/17 00:58:42;;;;;;;8.27;5.23;;;;;;;;;;678111;29;1241;-64
2023/10/17 00:59:07;;;;;;;7.47;5.20;;;;;;;;;;678154;29;2185;-65
2023/10/17 00:59:29;;;;;;;7.57;5.05;;;;;;;;;;678271;29;69880;-64
2023/10/17 00:59:50;;;;;;;7.95;5.18;;;;;;;;;;683474;28;956;-64
2023/10/17 01:00:16;;;;;;;8.18;5.20;;;;;;;;;;679904;29;2208;-64
2023/10/17 01:00:36;;;;;;;8.02;5.07;;;;;;;;;;681928;28;47241;-64
2023/10/17 01:01:48;;;;;;;7.00;4.70;;;;;;;;;;679324;29;71905;-65
2023/10/17 01:02:10;;;;;;;7.30;4.90;;;;;;;;;;680553;29;1760;-64
2023/10/17 01:02:31;;;;;;;7.70;5.20;;;;;;;;;;679598;29;1047;-64
2023/10/17 01:02:57;;;;;;;7.22;4.80;;;;;;;;;;679075;29;1542;-65
2023/10/17 01:03:18;;;;;;;7.50;4.60;;;;;;;;;;679693;29;69722;-65
2023/10/17 01:03:43;;;;;;;7.50;4.53;;;;;;;;;;683651;28;1493;-64
2023/10/17 01:04:04;;;;;;;7.35;4.68;;;;;;;;;;680440;28;67064;-64
2023/10/17 01:04:25;;;;;;;8.63;4.88;;;;;;;;;;685442;28;1621;-64
2023/10/17 01:04:45;;;;;;;7.65;4.80;;;;;;;;;;684203;28;1418;-65
2023/10/17 01:05:11;;;;;;;7.13;4.80;;;;;;;;;;681570;28;1835;-64
2023/10/17 01:05:40;;;;;;;6.95;4.45;;;;;;;;;;679802;28;70049;-64
2023/10/17 01:06:40;;;;;;;6.40;4.40;;;;;;;;;;681869;28;69472;-64
2023/10/17 01:07:06;;;;;;;6.57;4.40;;;;;;;;;;682732;28;5089;-64
2023/10/17 01:07:29;;;;;;;7.38;4.43;;;;;;;;;;685002;28;69999;-64
2023/10/17 01:07:51;;;;;;;7.65;4.47;;;;;;;;;;683925;28;24427;-64
2023/10/17 01:08:11;;;;;;;7.32;4.30;;;;;;;;;;681278;28;1908;-64
2023/10/17 01:08:39;;;;;;;7.50;4.60;;;;;;;;;;679370;29;1310;-62
2023/10/17 01:09:07;;;;;;;7.25;4.60;;;;;;;;;;675130;29;72464;-65
2023/10/17 01:09:28;;;;;;;7.10;4.60;;;;;;;;;;672917;29;69027;-65
2023/10/17 01:09:49;;;;;;;7.50;4.57;;;;;;;;;;683495;28;4358;-64
2023/10/17 01:10:10;;;;;;;6.95;4.38;;;;;;;;;;677635;29;2254;-65
2023/10/17 01:10:31;;;;;;;6.70;4.28;;;;;;;;;;679598;29;1672;-65
2023/10/17 01:10:51;;;;;;;7.20;4.70;;;;;;;;;;675728;29;1689;-65
2023/10/17 01:11:29;;;;;;;9.00;4.87;;;;;;;;;;674919;29;1611;-64
2023/10/17 01:11:54;;;;;;;6.68;4.25;;;;;;;;;;674736;29;70503;-63
2023/10/17 01:12:16;;;;;;;6.80;4.53;;;;;;;;;;677413;29;46960;-64
2023/10/17 01:12:57;;;;;;;7.88;4.70;;;;;;;;;;679082;29;4456;-64
2023/10/17 01:13:19;;;;;;;6.72;4.20;;;;;;;;;;681087;28;89913;-64
2023/10/17 01:13:39;;;;;;;7.17;4.33;;;;;;;;;;684918;28;912;-64
2023/10/17 01:14:00;;;;;;;6.33;4.50;;;;;;;;;;680526;29;1833;-64
2023/10/17 01:14:23;;;;;;;7.68;4.60;;;;;;;;;;682732;28;1620;-64
2023/10/17 01:14:43;;;;;;;7.13;4.32;;;;;;;;;;681916;29;1237;-64
2023/10/17 01:15:04;;;;;;;6.40;4.20;;;;;;;;;;680652;29;1483;-64
2023/10/17 01:15:28;;;;;;;6.43;4.10;;;;;;;;;;679872;29;908;-64
2023/10/17 01:15:51;;;;;;;7.38;4.32;;;;;;;;;;681014;28;23530;-65
2023/10/17 01:16:15;;;;;;;7.18;4.22;;;;;;;;;;678626;29;25353;-64
2023/10/17 01:16:35;;;;;;;7.57;4.30;;;;;;;;;;680607;29;2352;-64
2023/10/17 01:16:57;;;;;;;6.50;4.22;;;;;;;;;;679210;29;1921;-63
2023/10/17 01:17:21;;;;;;;6.35;3.92;;;;;;;;;;679172;29;1521;-65
2023/10/17 01:17:42;;;;;;;6.22;4.30;;;;;;;;;;677568;29;46034;-64
2023/10/17 01:18:04;;;;;;;5.87;4.10;;;;;;;;;;676056;29;1762;-64
2023/10/17 01:18:31;;;;;;;6.68;3.90;;;;;;;;;;676615;29;1889;-65
2023/10/17 01:18:53;;;;;;;7.15;4.10;;;;;;;;;;675717;29;71225;-64
2023/10/17 01:19:19;;;;;;;6.88;4.00;;;;;;;;;;679698;29;1997;-64
2023/10/17 01:19:39;;;;;;;6.47;4.25;;;;;;;;;;680092;29;46694;-65
2023/10/17 01:20:07;;;;;;;6.93;4.30;;;;;;;;;;682819;28;1706;-64
2023/10/17 01:20:29;;;;;;;7.18;4.10;;;;;;;;;;681273;28;70343;-64
2023/10/17 01:20:50;;;;;;;6.68;4.00;;;;;;;;;;683649;28;1023;-65
2023/10/17 01:21:20;;;;;;;8.27;4.07;;;;;;;;;;683270;28;1881;-64
2023/10/17 01:21:41;;;;;;;5.85;3.85;;;;;;;;;;678257;29;69522;-63
2023/10/17 01:22:03;;;;;;;6.47;4.15;;;;;;;;;;680610;29;1869;-64
2023/10/17 01:22:24;;;;;;;7.13;4.32;;;;;;;;;;677479;29;1299;-64
2023/10/17 01:22:44;;;;;;;6.70;3.97;;;;;;;;;;678118;29;1086;-65
2023/10/17 01:23:04;;;;;;;6.10;4.00;;;;;;;;;;678915;29;1180;-64
2023/10/17 01:23:26;;;;;;;7.20;4.10;;;;;;;;;;682505;28;861;-65
2023/10/17 01:23:48;;;;;;;6.45;4.03;;;;;;;;;;681616;29;978;-65
2023/10/17 01:24:08;;;;;;;6.57;3.97;;;;;;;;;;678486;29;1730;-63
2023/10/17 01:24:29;;;;;;;6.28;3.92;;;;;;;;;;682099;29;1252;-65
2023/10/17 01:24:49;;;;;;;6.40;4.00;;;;;;;;;;678742;29;5523;-64
2023/10/17 01:25:24;;;;;;;6.88;4.20;;;;;;;;;;677745;29;1799;-65
2023/10/17 01:25:45;;;;;;;6.30;4.00;;;;;;;;;;679292;29;68334;-65
2023/10/17 01:26:12;;;;;;;7.03;4.07;;;;;;;;;;682702;28;1864;-64
2023/10/17 01:26:37;;;;;;;6.40;3.90;;;;;;;;;;682363;28;68883;-65
2023/10/17 01:26:59;;;;;;;7.10;3.97;;;;;;;;;;684613;28;45785;-64
2023/10/17 01:27:19;;;;;;;5.85;4.07;;;;;;;;;;687819;28;943;-64
2023/10/17 01:27:40;;;;;;;6.67;4.30;;;;;;;;;;687392;28;908;-65
2023/10/17 01:28:01;;;;;;;7.45;4.50;;;;;;;;;;685211;28;4776;-65
2023/10/17 01:28:23;;;;;;;7.90;4.28;;;;;;;;;;684161;28;2266;-63
2023/10/17 01:28:47;;;;;;;8.23;4.25;;;;;;;;;;684634;28;1023;-64
2023/10/17 01:29:11;;;;;;;6.53;3.95;;;;;;;;;;682069;28;1663;-65
2023/10/17 01:29:32;;;;;;;7.55;4.03;;;;;;;;;;683772;28;24497;-65
2023/10/17 01:29:52;;;;;;;7.88;4.47;;;;;;;;;;681645;29;1692;-64
2023/10/17 01:30:16;;;;;;;6.43;4.20;;;;;;;;;;680386;28;1773;-65
2023/10/17 01:30:36;;;;;;;5.95;4.10;;;;;;;;;;684416;28;2331;-65
2023/10/17 01:31:01;;;;;;;6.30;4.28;;;;;;;;;;680053;28;4408;-63
2023/10/17 01:31:24;;;;;;;7.18;4.32;;;;;;;;;;678485;29;1151;-64
2023/10/17 01:31:45;;;;;;;6.68;4.10;;;;;;;;;;678474;29;24101;-65
2023/10/17 01:32:09;;;;;;;7.72;4.10;;;;;;;;;;678206;28;2354;-64
2023/10/17 01:32:30;;;;;;;7.03;4.22;;;;;;;;;;678996;29;22612;-64
2023/10/17 01:32:51;;;;;;;7.07;4.30;;;;;;;;;;682874;28;2169;-64
2023/10/17 01:33:12;;;;;;;7.28;4.40;;;;;;;;;;683925;28;1861;-64
2023/10/17 01:33:33;;;;;;;6.93;4.10;;;;;;;;;;685549;28;1340;-65
2023/10/17 01:33:59;;;;;;;5.70;3.90;;;;;;;;;;684959;28;4795;-65
2023/10/17 01:34:21;;;;;;;6.50;3.90;;;;;;;;;;684516;28;69589;-65
2023/10/17 01:34:41;;;;;;;6.57;4.18;;;;;;;;;;684284;28;1581;-65
2023/10/17 01:35:02;;;;;;;6.63;4.23;;;;;;;;;;683231;28;1749;-63
2023/10/17 01:35:23;;;;;;;5.90;3.65;;;;;;;;;;682059;29;833;-66
2023/10/17 01:35:44;;;;;;;5.60;3.50;;;;;;;;;;678775;29;849;-64
2023/10/17 01:36:09;;;;;;;6.10;3.78;;;;;;;;;;677519;29;2832;-65
2023/10/17 01:36:29;;;;;;;6.63;3.90;;;;;;;;;;676999;29;70104;-65
2023/10/17 01:36:50;;;;;;;6.23;4.03;;;;;;;;;;680059;28;4593;-65
2023/10/17 01:37:11;;;;;;;6.32;3.95;;;;;;;;;;681539;28;1909;-65
2023/10/17 01:37:32;;;;;;;6.90;4.15;;;;;;;;;;681203;29;1651;-64
2023/10/17 01:37:54;;;;;;;6.38;4.22;;;;;;;;;;679565;28;1455;-64
2023/10/17 01:38:17;;;;;;;5.85;3.88;;;;;;;;;;675005;29;3046;-65
2023/10/17 01:38:38;;;;;;;7.15;3.97;;;;;;;;;;673698;29;1049;-64
2023/10/17 01:39:00;;;;;;;6.25;3.90;;;;;;;;;;674432;29;5265;-65
2023/10/17 01:39:20;;;;;;;6.00;3.97;;;;;;;;;;674494;29;1915;-64
2023/10/17 01:39:40;;;;;;;6.80;4.00;;;;;;;;;;675470;29;4509;-65
2023/10/17 01:40:01;;;;;;;6.38;3.75;;;;;;;;;;677028;29;1533;-65
2023/10/17 01:40:27;;;;;;;6.73;3.70;;;;;;;;;;681824;28;1477;-65
2023/10/17 01:40:47;;;;;;;6.13;3.58;;;;;;;;;;681389;28;68896;-64
2023/10/17 01:41:09;;;;;;;5.43;3.53;;;;;;;;;;681396;28;1767;-64
2023/10/17 01:41:29;;;;;;;5.82;3.65;;;;;;;;;;685021;28;880;-64
2023/10/17 01:41:50;;;;;;;6.80;3.70;;;;;;;;;;684245;28;1094;-65
2023/10/17 01:42:12;;;;;;;6.45;3.83;;;;;;;;;;683026;28;1762;-64
2023/10/17 01:42:33;;;;;;;7.05;3.95;;;;;;;;;;684576;28;1295;-64
2023/10/17 01:42:54;;;;;;;7.50;3.80;;;;;;;;;;684047;28;4599;-65
2023/10/17 01:43:15;;;;;;;8.00;3.78;;;;;;;;;;680579;29;2603;-64
2023/10/17 01:43:40;;;;;;;8.00;3.90;;;;;;;;;;681980;29;1191;-64
2023/10/17 01:44:01;;;;;;;5.63;3.80;;;;;;;;;;681810;28;45829;-65
2023/10/17 01:44:21;;;;;;;7.00;3.83;;;;;;;;;;684326;28;1470;-65
2023/10/17 01:44:42;;;;;;;5.90;3.73;;;;;;;;;;684785;28;1464;-64
2023/10/17 01:45:05;;;;;;;6.28;3.83;;;;;;;;;;680580;29;1150;-65
2023/10/17 01:45:26;;;;;;;7.57;4.20;;;;;;;;;;682728;28;1423;-64
2023/10/17 01:45:48;;;;;;;6.35;4.07;;;;;;;;;;681525;29;4631;-65
2023/10/17 01:46:15;;;;;;;5.70;3.80;;;;;;;;;;677583;29;2078;-65
2023/10/17 01:46:38;;;;;;;6.32;4.00;;;;;;;;;;678535;29;68916;-64
2023/10/17 01:46:58;;;;;;;7.07;3.75;;;;;;;;;;682041;28;978;-65
2023/10/17 01:47:19;;;;;;;6.13;3.83;;;;;;;;;;683433;28;1306;-64
2023/10/17 01:47:39;;;;;;;8.17;3.93;;;;;;;;;;682146;29;1302;-64
2023/10/17 01:48:00;;;;;;;7.05;4.10;;;;;;;;;;681021;28;2058;-65
2023/10/17 01:48:21;;;;;;;6.95;4.07;;;;;;;;;;684823;28;947;-64
2023/10/17 01:48:48;;;;;;;6.67;4.03;;;;;;;;;;683123;28;4486;-65
2023/10/17 01:49:12;;;;;;;5.88;3.85;;;;;;;;;;679897;28;70020;-64
2023/10/17 01:49:33;;;;;;;6.32;3.67;;;;;;;;;;685225;28;23204;-64
2023/10/17 01:49:53;;;;;;;6.00;3.75;;;;;;;;;;687876;28;805;-65
2023/10/17 01:50:14;;;;;;;6.20;3.75;;;;;;;;;;686077;28;2812;-64
2023/10/17 01:50:34;;;;;;;6.23;3.63;;;;;;;;;;684374;28;1251;-63
2023/10/17 01:50:55;;;;;;;6.60;3.67;;;;;;;;;;684753;28;1366;-64
2023/10/17 01:51:16;;;;;;;7.38;3.55;;;;;;;;;;683107;28;1799;-64
2023/10/17 01:51:36;;;;;;;7.15;3.70;;;;;;;;;;681902;29;928;-64
2023/10/17 01:51:57;;;;;;;5.97;3.60;;;;;;;;;;680494;28;4633;-65
2023/10/17 01:52:18;;;;;;;6.37;3.83;;;;;;;;;;681754;29;1412;-64
2023/10/17 01:52:42;;;;;;;6.03;3.70;;;;;;;;;;679108;29;1406;-64
2023/10/17 01:53:10;;;;;;;5.43;3.60;;;;;;;;;;678778;28;1486;-64
2023/10/17 01:53:32;;;;;;;7.38;3.78;;;;;;;;;;678720;29;71953;-64
2023/10/17 01:53:53;;;;;;;7.28;3.90;;;;;;;;;;681864;29;1082;-63
2023/10/17 01:54:15;;;;;;;6.80;4.07;;;;;;;;;;679938;29;2188;-65
2023/10/17 01:54:36;;;;;;;7.30;3.80;;;;;;;;;;680888;29;2284;-64
2023/10/17 01:54:59;;;;;;;6.47;3.47;;;;;;;;;;679928;28;4608;-65
2023/10/17 01:55:24;;;;;;;5.78;3.55;;;;;;;;;;680421;29;1256;-65
2023/10/17 01:56:06;;;;;;;8.80;3.90;;;;;;;;;;679056;29;71249;-65
2023/10/17 01:56:26;;;;;;;6.07;3.80;;;;;;;;;;676938;29;71797;-64
2023/10/17 01:56:47;;;;;;;6.85;3.75;;;;;;;;;;679269;29;1435;-64
2023/10/17 01:57:08;;;;;;;6.45;3.95;;;;;;;;;;676305;28;1830;-65
2023/10/17 01:57:29;;;;;;;6.28;3.92;;;;;;;;;;679455;29;1380;-65
2023/10/17 01:57:54;;;;;;;7.43;4.00;;;;;;;;;;678849;29;4595;-65
2023/10/17 01:58:15;;;;;;;6.45;3.80;;;;;;;;;;674374;29;48531;-64
2023/10/17 01:58:38;;;;;;;6.03;3.60;;;;;;;;;;675878;29;1469;-65
2023/10/17 01:59:12;;;;;;;6.50;3.85;;;;;;;;;;675242;29;1737;-65
2023/10/17 01:59:34;;;;;;;6.18;4.13;;;;;;;;;;675971;29;71964;-65
2023/10/17 01:59:55;;;;;;;6.15;4.00;;;;;;;;;;678109;29;967;-64
2023/10/17 02:00:57;;;;;;;7.25;3.90;;;;;;;;;;677212;29;70974;-65
2023/10/17 02:01:17;;;;;;;6.43;3.72;;;;;;;;;;681433;28;2363;-64
2023/10/17 02:01:40;;;;;;;5.67;3.80;;;;;;;;;;684990;28;849;-65
2023/10/17 02:02:03;;;;;;;6.53;3.60;;;;;;;;;;682968;28;1406;-64
2023/10/17 02:02:24;;;;;;;7.20;3.70;;;;;;;;;;686598;28;1567;-64
2023/10/17 02:02:44;;;;;;;7.90;3.92;;;;;;;;;;686212;28;960;-64
2023/10/17 02:03:08;;;;;;;6.43;3.60;;;;;;;;;;683631;28;1438;-64
2023/10/17 02:03:29;;;;;;;6.20;3.40;;;;;;;;;;683863;28;22822;-64
2023/10/17 02:03:53;;;;;;;6.20;3.50;;;;;;;;;;679593;29;4650;-66
2023/10/17 02:04:13;;;;;;;5.80;3.80;;;;;;;;;;678167;29;1747;-64
2023/10/17 02:04:35;;;;;;;7.43;3.67;;;;;;;;;;679592;29;897;-64
2023/10/17 02:04:57;;;;;;;7.35;4.20;;;;;;;;;;679409;29;1603;-65
2023/10/17 02:05:18;;;;;;;7.18;4.32;;;;;;;;;;675852;29;1244;-65
2023/10/17 02:05:38;;;;;;;7.10;3.47;;;;;;;;;;680190;29;933;-64
2023/10/17 02:05:59;;;;;;;5.70;3.67;;;;;;;;;;676940;28;1475;-65
2023/10/17 02:06:22;;;;;;;6.03;3.63;;;;;;;;;;682082;29;1009;-65
2023/10/17 02:06:48;;;;;;;6.50;3.72;;;;;;;;;;678488;29;5010;-64
2023/10/17 02:07:08;;;;;;;6.43;3.30;;;;;;;;;;678567;28;70361;-64
2023/10/17 02:07:29;;;;;;;6.37;3.30;;;;;;;;;;681675;29;1362;-65
2023/10/17 02:07:49;;;;;;;7.57;3.50;;;;;;;;;;681309;29;1227;-64
2023/10/17 02:08:09;;;;;;;6.67;3.70;;;;;;;;;;680003;28;1905;-64
2023/10/17 02:08:32;;;;;;;6.50;3.50;;;;;;;;;;679136;29;1189;-65
2023/10/17 02:08:54;;;;;;;7.05;3.58;;;;;;;;;;679174;29;4683;-63
2023/10/17 02:09:24;;;;;;;6.07;3.40;;;;;;;;;;678616;29;1809;-64
2023/10/17 02:09:44;;;;;;;7.63;3.65;;;;;;;;;;679206;29;68686;-64
2023/10/17 02:10:07;;;;;;;7.13;3.78;;;;;;;;;;679879;29;1640;-65
2023/10/17 02:10:30;;;;;;;6.32;3.45;;;;;;;;;;681647;29;1514;-65
2023/10/17 02:10:50;;;;;;;6.22;3.47;;;;;;;;;;681786;29;1414;-64
2023/10/17 02:11:23;;;;;;;6.60;3.30;;;;;;;;;;680532;28;1883;-64
2023/10/17 02:11:44;;;;;;;5.95;3.25;;;;;;;;;;680542;29;46966;-64
2023/10/17 02:12:05;;;;;;;5.80;3.33;;;;;;;;;;680650;28;1843;-64
2023/10/17 02:12:25;;;;;;;5.80;3.30;;;;;;;;;;681013;29;2265;-64
2023/10/17 02:12:47;;;;;;;6.67;3.90;;;;;;;;;;678962;29;4515;-65
2023/10/17 02:13:07;;;;;;;6.15;3.70;;;;;;;;;;675453;29;2554;-63
2023/10/17 02:13:29;;;;;;;6.70;3.53;;;;;;;;;;676226;29;1234;-66
2023/10/17 02:13:56;;;;;;;5.47;3.22;;;;;;;;;;677136;29;1276;-64
2023/10/17 02:14:16;;;;;;;5.93;3.40;;;;;;;;;;676537;29;69863;-65
2023/10/17 02:14:37;;;;;;;5.13;3.30;;;;;;;;;;683406;28;932;-64
2023/10/17 02:14:58;;;;;;;6.45;3.80;;;;;;;;;;683239;28;2268;-65
2023/10/17 02:15:23;;;;;;;6.50;3.90;;;;;;;;;;681948;28;1833;-64
2023/10/17 02:15:44;;;;;;;5.60;3.40;;;;;;;;;;676689;29;47335;-63
2023/10/17 02:16:05;;;;;;;7.00;3.60;;;;;;;;;;678240;29;2411;-64
2023/10/17 02:16:28;;;;;;;6.05;3.50;;;;;;;;;;679118;29;1692;-65
2023/10/17 02:16:49;;;;;;;6.85;3.53;;;;;;;;;;680629;29;1438;-64
2023/10/17 02:17:15;;;;;;;6.95;3.80;;;;;;;;;;680509;29;1760;-65
2023/10/17 02:17:35;;;;;;;6.53;3.70;;;;;;;;;;680874;28;69375;-64
2023/10/17 02:17:57;;;;;;;5.67;3.40;;;;;;;;;;682000;28;1884;-63
2023/10/17 02:18:18;;;;;;;7.65;3.55;;;;;;;;;;678969;29;1242;-64
2023/10/17 02:18:38;;;;;;;6.53;3.67;;;;;;;;;;678780;29;1308;-65
2023/10/17 02:18:59;;;;;;;6.10;3.80;;;;;;;;;;679139;29;4374;-64
2023/10/17 02:19:25;;;;;;;6.05;3.63;;;;;;;;;;679116;29;1952;-64
2023/10/17 02:19:47;;;;;;;7.38;3.70;;;;;;;;;;672597;29;69023;-64
2023/10/17 02:20:47;;;;;;;5.68;3.38;;;;;;;;;;677514;29;1778;-63
2023/10/17 02:21:04;;;;;;;6.88;3.70;;;;;;;;;;676368;29;71819;-64
2023/10/17 02:21:27;;;;;;;6.68;3.58;;;;;;;;;;680059;29;69651;-64
2023/10/17 02:21:50;;;;;;;5.68;3.10;;;;;;;;;;686380;28;4633;-64
2023/10/17 02:22:11;;;;;;;5.30;3.35;;;;;;;;;;684729;28;1772;-64
2023/10/17 02:22:31;;;;;;;6.00;3.67;;;;;;;;;;687552;28;1317;-64
2023/10/17 02:22:51;;;;;;;6.50;3.50;;;;;;;;;;687019;28;1297;-64
2023/10/17 02:23:19;;;;;;;7.53;3.77;;;;;;;;;;682664;28;2023;-64
2023/10/17 02:23:40;;;;;;;6.65;3.67;;;;;;;;;;682286;28;69234;-64
2023/10/17 02:24:01;;;;;;;7.30;3.80;;;;;;;;;;684163;28;861;-65
2023/10/17 02:24:22;;;;;;;6.10;3.40;;;;;;;;;;683126;28;955;-64
2023/10/17 02:24:42;;;;;;;5.00;3.13;;;;;;;;;;684142;28;4412;-64
2023/10/17 02:25:04;;;;;;;6.13;3.95;;;;;;;;;;684229;28;1777;-63
2023/10/17 02:25:32;;;;;;;5.88;3.47;;;;;;;;;;684799;28;1516;-64
2023/10/17 02:25:54;;;;;;;5.50;3.55;;;;;;;;;;679507;29;70010;-65
2023/10/17 02:26:21;;;;;;;5.90;3.60;;;;;;;;;;678697;29;2574;-63